Big Bear Station Historical Data
Daily Summary for December 8, 2017 Units:  Metric    English   Both
« Previous Day
Next Day »
Daily Weekly Monthly Yearly Custom
  High: Low: Average:
Temperature: 10.3 °C -1.4 °C 3.4 °C
Dew Point: -10 °C -15.8 °C -12.2 °C
Humidity: 52 % 22 % 32 %
Wind Speed: 7.6 km/h 0 km/h 1.9 km/h
Wind Gust: -1607.7 km/h - -
Wind:- - SW
Pressure: 1031 hPa 1028.7 hPa -
Precipitation: 0 mm    
Historical Graphs
 
 
Tabular Data for December 8, 2017
Time Temperature Dew Point Pressure Wind Wind Speed Wind Gust Humidity Rainfall Rate (Hourly)
00:31 1.3 °C -12.9 °C 1030.7 hPa Calm   -1607.7 km/h 34 % 0 mm
00:47 1.1 °C -12.7 °C 1030.7 hPa Calm   -1607.7 km/h 35 % 0 mm
01:02 1.4 °C -12.4 °C 1030.7 hPa Calm   -1607.7 km/h 35 % 0 mm
01:17 1.2 °C -12.6 °C 1030.7 hPa South 5.1 km/h -1607.7 km/h 35 % 0 mm
01:48 0.8 °C -12.9 °C 1030.7 hPa South 2.7 km/h -1607.7 km/h 35 % 0 mm
02:18 0.6 °C -13.1 °C 1030.7 hPa Calm   -1607.7 km/h 35 % 0 mm
02:33 0.1 °C -13.6 °C 1030.7 hPa Calm   -1607.7 km/h 35 % 0 mm
02:49 -0.1 °C -13.4 °C 1030.7 hPa Calm   -1607.7 km/h 36 % 0 mm
03:04 -0.4 °C -13.3 °C 1030.7 hPa Calm   -1607.7 km/h 37 % 0 mm
03:19 0.1 °C -13.2 °C 1030.4 hPa Calm   -1607.7 km/h 36 % 0 mm
03:34 0 °C -13.3 °C 1030.7 hPa South 4.3 km/h -1607.7 km/h 36 % 0 mm
03:50 0.3 °C -13.1 °C 1030.4 hPa ESE 3.5 km/h -1607.7 km/h 36 % 0 mm
04:05 0.5 °C -12.9 °C 1030.4 hPa SW 3.5 km/h -1607.7 km/h 36 % 0 mm
04:20 0.5 °C -12.9 °C 1030.4 hPa South 3.5 km/h -1607.7 km/h 36 % 0 mm
05:06 0.4 °C -12.6 °C 1030.4 hPa Calm   -1607.7 km/h 37 % 0 mm
05:21 0.4 °C -12.6 °C 1030.4 hPa Calm   -1607.7 km/h 37 % 0 mm
05:36 0.2 °C -12.4 °C 1030.4 hPa Calm   -1607.7 km/h 38 % 0 mm
05:51 0.2 °C -12.4 °C 1030.4 hPa Calm   -1607.7 km/h 38 % 0 mm
06:07 -0.3 °C -12.6 °C 1030.7 hPa Calm   -1607.7 km/h 39 % 0 mm
06:22 -0.5 °C -11 °C 1030.7 hPa Calm   -1607.7 km/h 45 % 0 mm
06:37 -0.8 °C -10.4 °C 1030.7 hPa Calm   -1607.7 km/h 48 % 0 mm
07:24 -1.4 °C -10 °C 1031 hPa Calm   -1607.7 km/h 52 % 0 mm
07:39 -1.3 °C -10.1 °C 1031 hPa Calm   -1607.7 km/h 51 % 0 mm
07:54 -0.7 °C -10.7 °C 1031 hPa Calm   -1607.7 km/h 47 % 0 mm
08:09 0.5 °C -10.3 °C 1031 hPa NNW 1.8 km/h -1607.7 km/h 44 % 0 mm
08:25 2 °C -10.5 °C 1031 hPa NE 3.5 km/h -1607.7 km/h 39 % 0 mm
08:40 3 °C -10.3 °C 1031 hPa Calm   -1607.7 km/h 37 % 0 mm
08:55 4 °C -10.4 °C 1031 hPa West 3.5 km/h -1607.7 km/h 34 % 0 mm
09:10 5.1 °C -10.3 °C 1031 hPa NE 4.3 km/h -1607.7 km/h 32 % 0 mm
09:41 6.3 °C -10.1 °C 1031 hPa NNW 4.3 km/h -1607.7 km/h 30 % 0 mm
10:11 7.2 °C -10.1 °C 1030.7 hPa NW 6 km/h -1607.7 km/h 28 % 0 mm
10:42 8.2 °C -10.2 °C 1030.7 hPa WNW 5.1 km/h -1607.7 km/h 26 % 0 mm
11:13 9.2 °C -10.3 °C 1030.4 hPa North 2.7 km/h -1607.7 km/h 24 % 0 mm
11:28 9.2 °C -10.3 °C 1030 hPa NNW 7.6 km/h -1607.7 km/h 24 % 0 mm
11:43 9.6 °C -10.6 °C 1030 hPa NW 7.6 km/h -1607.7 km/h 23 % 0 mm
11:58 10.3 °C -10.6 °C 1030 hPa Calm   -1607.7 km/h 22 % 0 mm
12:29 10 °C -10.8 °C 1029.7 hPa NW 6 km/h -1607.7 km/h 22 % 0 mm
12:44 10.2 °C -10.6 °C 1029.7 hPa ENE 3.5 km/h -1607.7 km/h 22 % 0 mm
12:59 9.8 °C -10.9 °C 1029.7 hPa Calm   -1607.7 km/h 22 % 0 mm
13:30 9.3 °C -10.8 °C 1029.3 hPa ESE 2.7 km/h -1607.7 km/h 23 % 0 mm
13:45 9.3 °C -10.8 °C 1029 hPa WNW 2.7 km/h -1607.7 km/h 23 % 0 mm
14:00 9 °C -11.1 °C 1029 hPa NW 4.3 km/h -1607.7 km/h 23 % 0 mm
14:15 8.7 °C -10.8 °C 1029 hPa ESE 3.5 km/h -1607.7 km/h 24 % 0 mm
14:31 8.5 °C -10.4 °C 1029 hPa NW 6.8 km/h -1607.7 km/h 25 % 0 mm
14:46 8.3 °C -11.2 °C 1029 hPa SSE 2.7 km/h -1607.7 km/h 24 % 0 mm
15:01 8.1 °C -10.8 °C 1029 hPa North 2.7 km/h -1607.7 km/h 25 % 0 mm
15:17 7.6 °C -11.2 °C 1029 hPa Calm   -1607.7 km/h 25 % 0 mm
15:32 7.4 °C -10.9 °C 1029 hPa North 2.7 km/h -1607.7 km/h 26 % 0 mm
15:47 6.9 °C -11.3 °C 1029 hPa Calm   -1607.7 km/h 26 % 0 mm
16:02 6.4 °C -11.3 °C 1029 hPa Calm   -1607.7 km/h 27 % 0 mm
16:33 5 °C -12.5 °C 1029 hPa Calm   -1607.7 km/h 27 % 0 mm
16:48 4.3 °C -12.2 °C 1029 hPa Calm   -1607.7 km/h 29 % 0 mm
17:03 3.7 °C -11.9 °C 1029 hPa South 3.5 km/h -1607.7 km/h 31 % 0 mm
17:18 3.5 °C -12.1 °C 1029 hPa Calm   -1607.7 km/h 31 % 0 mm
17:34 2.9 °C -12.6 °C 1028.7 hPa SSE 3.5 km/h -1607.7 km/h 31 % 0 mm
17:49 2.8 °C -13.1 °C 1029 hPa SSE 3.5 km/h -1607.7 km/h 30 % 0 mm
18:04 3.2 °C -13.6 °C 1029 hPa SSE 3.5 km/h -1607.7 km/h 28 % 0 mm
18:20 3 °C -14.2 °C 1029 hPa SSE 2.7 km/h -1607.7 km/h 27 % 0 mm
18:35 2.5 °C -14.7 °C 1029.3 hPa Calm   -1607.7 km/h 27 % 0 mm
18:50 2.2 °C -14.9 °C 1029.3 hPa South 1.8 km/h -1607.7 km/h 27 % 0 mm
19:36 1.7 °C -15.8 °C 1029.3 hPa South 3.5 km/h -1607.7 km/h 26 % 0 mm
19:51 1.6 °C -14.1 °C 1029.3 hPa Calm   -1607.7 km/h 30 % 0 mm
20:06 1.2 °C -14.4 °C 1029.3 hPa Calm   -1607.7 km/h 30 % 0 mm
20:52 0.8 °C -15.3 °C 1029.3 hPa Calm   -1607.7 km/h 29 % 0 mm
21:07 0.6 °C -14.2 °C 1029.7 hPa Calm   -1607.7 km/h 32 % 0 mm
21:22 0.2 °C -14.2 °C 1029.7 hPa Calm   -1607.7 km/h 33 % 0 mm
21:53 0.9 °C -13.6 °C 1029.3 hPa South 3.5 km/h -1607.7 km/h 33 % 0 mm
22:08 1.2 °C -14.1 °C 1029.3 hPa South 2.7 km/h -1607.7 km/h 31 % 0 mm
22:23 1.4 °C -14.3 °C 1029.7 hPa South 3.5 km/h -1607.7 km/h 30 % 0 mm
23:09 0.8 °C -14.4 °C 1029.7 hPa Calm   -1607.7 km/h 31 % 0 mm
23:24 0.7 °C -14.1 °C 1029.7 hPa South 2.7 km/h -1607.7 km/h 32 % 0 mm
Big Bear CA Weather
Compliments of Weather Underground - 1.5 mb